Time;durP1;ratioP1;P1;durP2;ratioP2;P2;SDS_P1;SDS_P2;PMS_P1;PMS_P2;Temp;Humidity;BMP_temperature;BMP_pressure;BME280_temperature;BME280_humidity;BME280_pressure;Samples;Min_cycle;Max_cycle;Signal;HPM_P1;HPM_P2
2023/03/29 00:02:21;;;;;;;;;5.75;5.75;;;;;11.53;52.48;99917.41;5053669;28;45341;-74
2023/03/29 00:04:46;;;;;;;;;10.50;8.00;;;;;11.49;52.62;99928.97;5053403;28;46492;-75
2023/03/29 00:07:12;;;;;;;;;8.00;8.00;;;;;11.46;52.80;99925.56;5057101;28;45466;-74
2023/03/29 00:09:38;;;;;;;;;8.00;8.00;;;;;11.44;52.92;99932.66;5051973;28;45494;-74
2023/03/29 00:12:04;;;;;;;;;8.25;8.25;;;;;11.42;53.02;99926.56;5062506;28;45574;-74
2023/03/29 00:14:30;;;;;;;;;8.75;8.75;;;;;11.41;53.27;99927.47;5049217;28;46073;-75
2023/03/29 00:16:56;;;;;;;;;8.00;7.00;;;;;11.37;53.40;99926.72;5055744;28;45417;-75
2023/03/29 00:19:21;;;;;;;;;5.75;5.75;;;;;11.36;53.43;99926.75;5052882;28;45464;-75
2023/03/29 00:21:47;;;;;;;;;9.00;8.75;;;;;11.34;53.65;99936.50;5053490;28;45544;-74
2023/03/29 00:24:13;;;;;;;;;9.00;9.00;;;;;11.34;54.00;99936.50;5047617;28;46095;-75
2023/03/29 00:26:38;;;;;;;;;7.50;7.50;;;;;11.35;53.96;99925.03;5052920;28;45376;-75
2023/03/29 00:29:04;;;;;;;;;8.00;7.00;;;;;11.33;54.11;99918.94;5056823;28;45409;-75
2023/03/29 00:31:30;;;;;;;;;7.75;5.00;;;;;11.34;53.79;99928.59;5056985;28;45485;-75
2023/03/29 00:33:55;;;;;;;;;8.00;6.50;;;;;11.33;53.90;99930.34;5071870;28;47784;-75
2023/03/29 00:36:22;;;;;;;;;11.50;8.75;;;;;11.34;53.64;99920.66;5050055;28;45447;-75
2023/03/29 00:38:47;;;;;;;;;10.25;9.50;;;;;11.33;54.34;99929.50;5055880;28;45417;-74
2023/03/29 00:41:13;;;;;;;;;9.25;9.25;;;;;11.32;54.50;99938.31;5049804;28;45440;-75
2023/03/29 00:43:57;;;;;;;;;9.00;8.50;;;;;11.31;54.62;99949.78;5064273;28;48353;-75
2023/03/29 00:46:24;;;;;;;;;14.25;12.25;;;;;11.28;54.63;99937.53;5056584;28;45413;-75
2023/03/29 00:48:54;;;;;;;;;12.50;9.75;;;;;11.26;54.71;99944.63;5050624;28;45517;-75
2023/03/29 00:51:23;;;;;;;;;9.25;9.25;;;;;11.25;54.63;99936.75;5037548;28;45460;-75
2023/03/29 00:53:54;;;;;;;;;11.25;11.25;;;;;11.25;54.85;99923.56;5049147;28;45418;-75
2023/03/29 00:56:21;;;;;;;;;11.50;10.00;;;;;11.23;55.00;99918.31;5043487;28;45447;-75
2023/03/29 00:59:02;;;;;;;;;10.00;9.00;;;;;11.23;54.98;99902.50;5054546;28;45448;-75
2023/03/29 01:01:37;;;;;;;;;3.25;3.25;;;;;11.20;55.51;99902.59;5046983;28;45527;-75
2023/03/29 01:04:17;;;;;;;;;8.25;8.00;;;;;11.16;55.06;99893.91;5056348;28;45582;-75
2023/03/29 01:06:57;;;;;;;;;8.00;7.75;;;;;11.13;55.27;99898.41;5043258;28;45466;-75
2023/03/29 01:09:25;;;;;;;;;7.00;7.00;;;;;11.08;55.48;99892.41;5051306;28;45412;-75
2023/03/29 01:11:55;;;;;;;;;9.00;9.00;;;;;11.05;55.60;99890.75;5055854;28;45412;-75
2023/03/29 01:14:39;;;;;;;;;8.00;8.00;;;;;11.04;55.96;99893.41;5054517;28;46167;-75
2023/03/29 01:17:05;;;;;;;;;8.75;8.00;;;;;11.01;56.09;99893.50;5053994;28;45541;-75
2023/03/29 01:19:37;;;;;;;;;9.00;9.00;;;;;11.00;56.31;99897.91;5056023;28;45286;-74
2023/03/29 01:22:27;;;;;;;;;7.75;7.00;;;;;11.01;56.46;99893.50;5054990;28;45414;-75
2023/03/29 01:25:25;;;;;;;;;10.00;9.00;;;;;11.00;56.55;99904.97;5062200;28;47538;-75
2023/03/29 01:28:17;;;;;;;;;9.00;9.00;;;;;10.99;56.71;99904.09;5050034;28;45673;-75
2023/03/29 01:30:58;;;;;;;;;8.25;8.25;;;;;11.00;56.62;99907.59;5055743;28;45389;-75
2023/03/29 01:33:30;;;;;;;;;2.00;1.75;;;;;11.00;56.62;99919.03;5052838;28;45392;-75
2023/03/29 01:36:03;;;;;;;;;6.00;6.00;;;;;11.03;56.23;99949.75;5051035;28;47232;-75
2023/03/29 01:38:35;;;;;;;;;11.50;8.75;;;;;11.00;56.53;99971.78;5055216;28;45465;-75
2023/03/29 01:41:02;;;;;;;;;14.00;9.25;;;;;11.01;56.68;99999.03;5055400;28;45484;-74
2023/03/29 01:43:47;;;;;;;;;8.25;7.75;;;;;11.01;56.34;100028.06;5054915;28;45371;-75
2023/03/29 01:46:38;;;;;;;;;6.00;5.75;;;;;10.91;57.70;100045.03;5047906;28;45709;-75
2023/03/29 01:49:18;;;;;;;;;9.00;9.00;;;;;10.78;57.64;100029.53;5056638;28;45451;-74
2023/03/29 01:51:52;;;;;;;;;6.75;6.75;;;;;10.71;56.85;100011.28;5059681;28;45329;-75
2023/03/29 01:54:22;;;;;;;;;7.75;7.75;;;;;10.71;56.98;99998.97;5052547;28;45468;-74
2023/03/29 01:56:50;;;;;;;;;10.25;7.25;;;;;10.75;57.34;99987.41;5052758;28;45517;-75
2023/03/29 01:59:21;;;;;;;;;8.50;7.25;;;;;10.77;58.16;99967.13;5056066;28;45412;-75
2023/03/29 02:01:55;;;;;;;;;8.75;7.25;;;;;10.79;59.02;99952.16;5051029;28;45513;-75
2023/03/29 02:04:30;;;;;;;;;8.00;8.00;;;;;10.82;59.19;99953.84;5051986;28;45517;-75
2023/03/29 02:06:59;;;;;;;;;9.00;7.25;;;;;10.82;59.07;99948.56;5064826;27;47276;-74
2023/03/29 02:09:27;;;;;;;;;7.00;7.00;;;;;10.83;59.17;99937.97;5053970;28;45313;-75
2023/03/29 02:11:58;;;;;;;;;6.75;6.75;;;;;10.83;59.92;99942.38;5055354;28;45486;-75
2023/03/29 02:14:24;;;;;;;;;8.50;7.75;;;;;10.80;60.01;99940.69;5046103;28;45413;-75
2023/03/29 02:16:50;;;;;;;;;15.75;7.75;;;;;10.78;59.93;99945.13;5052453;28;46423;-74
2023/03/29 02:19:17;;;;;;;;;7.25;7.00;;;;;10.77;60.12;99956.59;5053930;28;45458;-74
2023/03/29 02:22:09;;;;;;;;;8.00;8.00;;;;;10.78;60.11;99934.59;5052634;28;45455;-75
2023/03/29 02:24:37;;;;;;;;;5.50;5.50;;;;;10.80;59.95;99919.59;5044215;28;45491;-75
2023/03/29 02:27:03;;;;;;;;;6.25;5.50;;;;;10.80;59.38;99914.31;5053136;28;45522;-75
2023/03/29 02:29:28;;;;;;;;;9.00;7.75;;;;;10.81;58.97;99907.25;5053483;28;45287;-75
2023/03/29 02:32:13;;;;;;;;;6.25;6.25;;;;;10.81;59.26;99907.25;5047571;28;45506;-75
2023/03/29 02:35:03;;;;;;;;;5.25;5.00;;;;;10.79;58.67;99914.34;5054160;28;45360;-74
2023/03/29 02:37:33;;;;;;;;;7.25;6.50;;;;;10.80;58.36;99908.16;5065547;28;48282;-75
2023/03/29 02:40:00;;;;;;;;;6.75;6.75;;;;;10.81;58.78;99900.22;5045243;28;45389;-75
2023/03/29 02:42:27;;;;;;;;;7.00;5.00;;;;;10.83;58.71;99897.53;5058989;28;45510;-75
2023/03/29 02:44:56;;;;;;;;;5.75;4.25;;;;;10.86;58.36;99900.09;5054668;28;45419;-75
2023/03/29 02:47:26;;;;;;;;;5.50;5.25;;;;;10.86;58.42;99889.53;5049728;28;45431;-73
2023/03/29 02:49:51;;;;;;;;;5.00;5.00;;;;;10.87;58.18;99877.22;5055202;28;45422;-75
2023/03/29 02:52:22;;;;;;;;;3.50;3.50;;;;;10.88;57.82;99900.06;5049474;28;45488;-75
2023/03/29 02:54:51;;;;;;;;;4.00;3.00;;;;;10.88;57.54;99889.50;5053169;28;45466;-75
2023/03/29 02:57:16;;;;;;;;;4.00;4.00;;;;;10.88;57.21;99881.59;5049837;28;46228;-75
2023/03/29 02:59:43;;;;;;;;;5.00;5.00;;;;;10.86;56.73;99872.84;5068862;28;45490;-75
2023/03/29 03:02:10;;;;;;;;;4.00;4.00;;;;;10.82;56.67;99880.84;5054771;28;45449;-75
2023/03/29 03:04:36;;;;;;;;;3.25;3.25;;;;;10.82;56.80;99883.50;5066055;27;46077;-75
2023/03/29 03:07:05;;;;;;;;;3.00;3.00;;;;;10.82;56.84;99880.84;5052616;28;46050;-75
2023/03/29 03:09:33;;;;;;;;;3.75;3.75;;;;;10.84;56.68;99883.44;5045927;28;45409;-75
2023/03/29 03:11:58;;;;;;;;;5.00;4.00;;;;;10.87;56.29;99879.84;5049048;28;45553;-75
2023/03/29 03:14:23;;;;;;;;;3.00;3.00;;;;;10.87;56.03;99880.72;5053382;28;45494;-75
2023/03/29 03:16:49;;;;;;;;;4.00;4.00;;;;;10.89;56.07;99881.53;5056057;28;46394;-74
2023/03/29 03:19:14;;;;;;;;;4.75;4.75;;;;;10.92;55.83;99883.19;5052228;28;45322;-75
2023/03/29 03:21:40;;;;;;;;;3.00;3.00;;;;;10.93;56.08;99871.75;5054014;28;45357;-75
2023/03/29 03:24:06;;;;;;;;;5.00;4.00;;;;;10.95;55.92;99869.94;5054789;28;45540;-75
2023/03/29 03:26:32;;;;;;;;;4.00;3.50;;;;;10.95;55.89;99865.53;5053662;28;45351;-75
2023/03/29 03:28:58;;;;;;;;;4.25;3.00;;;;;10.95;56.00;99864.66;5068349;28;45440;-75
2023/03/29 03:31:23;;;;;;;;;4.00;3.00;;;;;10.94;56.26;99858.50;5058299;28;45465;-75
2023/03/29 03:33:49;;;;;;;;;4.00;3.50;;;;;10.94;55.99;99863.78;5047432;28;45642;-75
2023/03/29 03:36:14;;;;;;;;;3.00;3.00;;;;;10.95;55.90;99862.00;5045412;28;46229;-75
2023/03/29 03:38:40;;;;;;;;;3.00;3.00;;;;;10.95;55.58;99860.25;5047406;28;45522;-75
2023/03/29 03:41:06;;;;;;;;;3.75;3.75;;;;;10.95;55.25;99869.94;5047699;28;45478;-75
2023/03/29 03:43:32;;;;;;;;;5.00;3.75;;;;;10.96;55.41;99880.44;5068408;28;45510;-75
2023/03/29 03:45:57;;;;;;;;;3.75;3.50;;;;;10.98;54.77;99872.47;5041629;28;46452;-75
2023/03/29 03:48:23;;;;;;;;;3.00;3.00;;;;;10.97;54.46;99870.75;5051752;28;45437;-75
2023/03/29 03:50:57;;;;;;;;;3.00;3.00;;;;;10.96;53.88;99863.75;5052381;28;45456;-75
2023/03/29 03:53:23;;;;;;;;;2.50;2.50;;;;;10.95;53.48;99878.72;5052242;28;45388;-74
2023/03/29 03:55:49;;;;;;;;;1.75;1.75;;;;;10.95;52.92;99883.13;5051470;28;46470;-75
2023/03/29 03:58:15;;;;;;;;;2.75;2.00;;;;;10.93;53.22;99877.88;5052885;28;45337;-75
2023/03/29 04:00:41;;;;;;;;;3.00;3.00;;;;;10.95;52.49;99875.22;5053063;28;45514;-75
2023/03/29 04:03:06;;;;;;;;;2.00;2.00;;;;;10.96;52.40;99869.03;5053435;28;45388;-75
2023/03/29 04:05:32;;;;;;;;;3.50;2.00;;;;;10.96;52.29;99869.88;5065635;28;46174;-75
2023/03/29 04:07:58;;;;;;;;;4.25;3.50;;;;;10.96;52.44;99872.53;5042746;28;45476;-74
2023/03/29 04:10:24;;;;;;;;;3.00;2.25;;;;;10.97;52.51;99870.75;5040775;28;45365;-74
2023/03/29 04:12:49;;;;;;;;;6.00;2.00;;;;;10.96;52.39;99882.22;5053957;28;45531;-74
2023/03/29 04:15:16;;;;;;;;;3.75;2.00;;;;;10.95;52.54;99883.97;5052419;28;45799;-74
2023/03/29 04:17:42;;;;;;;;;4.25;2.75;;;;;10.96;52.61;99877.81;5053578;28;45468;-74
2023/03/29 04:20:11;;;;;;;;;1.75;1.25;;;;;10.97;52.55;99874.25;5052938;28;45514;-75
2023/03/29 04:22:37;;;;;;;;;5.00;3.00;;;;;10.97;52.92;99878.66;5053673;28;45465;-75
2023/03/29 04:25:03;;;;;;;;;2.75;2.00;;;;;10.97;53.28;99881.31;5046655;28;46241;-75
2023/03/29 04:27:28;;;;;;;;;6.00;5.50;;;;;10.96;53.45;99869.03;5068701;28;45405;-75
2023/03/29 04:29:53;;;;;;;;;6.00;5.75;;;;;10.94;54.42;99866.44;5048061;28;45489;-75
2023/03/29 04:32:19;;;;;;;;;4.50;3.75;;;;;10.91;55.02;99865.66;5040082;28;45310;-74
2023/03/29 04:34:44;;;;;;;;;5.00;5.00;;;;;10.88;55.46;99865.75;5052463;28;46428;-74
2023/03/29 04:37:09;;;;;;;;;2.25;2.00;;;;;10.84;55.56;99863.22;5048407;28;45294;-74
2023/03/29 04:39:36;;;;;;;;;6.00;3.75;;;;;10.82;55.73;99869.44;5070312;27;45492;-74
2023/03/29 04:42:02;;;;;;;;;7.00;4.75;;;;;10.79;56.08;99867.75;5074049;27;45555;-74
2023/03/29 04:44:28;;;;;;;;;6.25;4.00;;;;;10.77;56.43;99866.91;5054312;27;46349;-75
2023/03/29 04:46:53;;;;;;;;;6.00;6.00;;;;;10.77;56.58;99866.91;5056117;28;45454;-74
2023/03/29 04:49:18;;;;;;;;;6.00;4.25;;;;;10.78;56.78;99867.78;5054014;28;45818;-74
2023/03/29 04:51:44;;;;;;;;;5.50;4.25;;;;;10.77;56.79;99864.28;5056497;28;45302;-74
2023/03/29 04:54:11;;;;;;;;;5.75;5.00;;;;;10.79;56.69;99870.38;5054031;28;45582;-74
2023/03/29 04:56:36;;;;;;;;;5.75;3.75;;;;;10.77;56.96;99859.00;5069322;28;45929;-75
2023/03/29 04:59:02;;;;;;;;;9.75;7.75;;;;;10.77;57.17;99851.09;5068197;28;45405;-75
2023/03/29 05:01:27;;;;;;;;;5.75;5.75;;;;;10.75;57.25;99854.69;5055418;28;45483;-75
2023/03/29 05:03:53;;;;;;;;;5.00;5.00;;;;;10.72;57.21;99855.66;5067392;27;47556;-75
2023/03/29 05:06:18;;;;;;;;;5.25;5.00;;;;;10.71;57.40;99845.16;5065379;27;45762;-75
2023/03/29 05:08:44;;;;;;;;;6.00;6.00;;;;;10.67;57.67;99852.28;5065485;28;45507;-75
2023/03/29 05:11:10;;;;;;;;;9.75;9.75;;;;;10.65;57.70;99847.97;5053581;28;45346;-75
2023/03/29 05:13:36;;;;;;;;;7.00;6.00;;;;;10.64;57.88;99854.13;5052265;28;46105;-75
2023/03/29 05:16:03;;;;;;;;;6.75;6.50;;;;;10.62;58.19;99858.59;5055483;28;45422;-75
2023/03/29 05:18:29;;;;;;;;;9.50;9.00;;;;;10.61;57.92;99855.09;5055893;28;45407;-75
2023/03/29 05:20:56;;;;;;;;;8.25;7.00;;;;;10.63;58.13;99860.31;5056218;28;45416;-75
2023/03/29 05:23:22;;;;;;;;;6.00;6.00;;;;;10.63;58.15;99850.63;5060032;28;47109;-75
2023/03/29 05:25:48;;;;;;;;;14.50;9.75;;;;;10.64;58.20;99857.63;5035975;28;45380;-75
2023/03/29 05:28:14;;;;;;;;;7.25;7.25;;;;;10.67;58.30;99865.47;5054669;28;45373;-75
2023/03/29 05:30:40;;;;;;;;;9.50;8.25;;;;;10.68;58.07;99864.56;5053791;28;45390;-76
2023/03/29 05:33:06;;;;;;;;;12.75;8.00;;;;;10.67;58.55;99862.81;5055624;28;45434;-75
2023/03/29 05:35:31;;;;;;;;;9.00;9.00;;;;;10.68;58.71;99854.00;5052015;28;45448;-75
2023/03/29 05:37:57;;;;;;;;;8.50;7.75;;;;;10.68;59.02;99863.69;5054865;28;45415;-75
2023/03/29 05:40:25;;;;;;;;;9.50;9.50;;;;;10.70;59.05;99865.38;5052867;28;45448;-75
2023/03/29 05:42:51;;;;;;;;;7.75;7.75;;;;;10.72;59.08;99867.97;5050027;28;47327;-75
2023/03/29 05:45:16;;;;;;;;;7.00;5.00;;;;;10.71;59.27;99872.41;5066299;28;45403;-75
2023/03/29 05:47:41;;;;;;;;;8.50;8.00;;;;;10.74;59.34;99866.13;5051357;28;45292;-75
2023/03/29 05:50:09;;;;;;;;;12.00;10.00;;;;;10.77;59.23;99866.06;5048021;28;45348;-75
2023/03/29 05:52:35;;;;;;;;;7.50;7.00;;;;;10.78;59.38;99863.38;5051973;28;46619;-75
2023/03/29 05:55:03;;;;;;;;;7.00;7.00;;;;;10.83;59.33;99863.25;5067270;28;45594;-75
2023/03/29 05:57:28;;;;;;;;;9.00;8.75;;;;;10.88;59.49;99860.50;5053561;28;45590;-77
2023/03/29 05:59:55;;;;;;;;;10.25;9.00;;;;;10.92;59.14;99862.97;5047361;28;45623;-75
2023/03/29 06:02:20;;;;;;;;;12.75;9.75;;;;;10.96;59.09;99869.03;5054917;28;46180;-75
2023/03/29 06:04:46;;;;;;;;;13.75;8.50;;;;;11.00;58.96;99863.63;5045063;28;45471;-76
2023/03/29 06:07:11;;;;;;;;;8.50;6.25;;;;;11.07;57.98;99864.28;5049607;28;45432;-74
2023/03/29 06:09:38;;;;;;;;;8.50;7.50;;;;;11.12;57.70;99873.78;5052013;28;45716;-76
2023/03/29 06:12:04;;;;;;;;;10.25;9.00;;;;;11.17;57.75;99873.66;5043592;28;45667;-79
2023/03/29 06:14:30;;;;;;;;;9.25;8.00;;;;;11.24;57.69;99879.59;5056593;28;45423;-79
2023/03/29 06:16:55;;;;;;;;;8.00;8.00;;;;;11.30;57.77;99879.41;5063218;28;45717;-79
2023/03/29 06:19:21;;;;;;;;;10.00;10.00;;;;;11.36;58.05;99881.88;5054817;28;45377;-78
2023/03/29 06:21:46;;;;;;;;;9.25;9.00;;;;;11.42;58.04;99886.94;5058049;27;46042;-78
2023/03/29 06:24:12;;;;;;;;;11.75;11.25;;;;;11.45;58.16;99886.88;5043702;28;45440;-78
2023/03/29 06:26:37;;;;;;;;;6.75;6.75;;;;;11.42;58.17;99887.81;5051831;28;45404;-80
2023/03/29 06:29:03;;;;;;;;;8.75;7.00;;;;;11.41;58.19;99896.66;5045873;28;45831;-80
2023/03/29 06:31:30;;;;;;;;;7.00;5.50;;;;;11.39;58.21;99893.22;5043975;28;45556;-79
2023/03/29 06:33:57;;;;;;;;;7.50;5.50;;;;;11.38;58.37;99893.25;5044503;28;45402;-79
2023/03/29 06:36:22;;;;;;;;;6.50;5.75;;;;;11.40;58.52;99896.69;5043831;28;45456;-79
2023/03/29 06:38:48;;;;;;;;;7.25;7.00;;;;;11.41;58.42;99895.78;5045953;28;45582;-80
2023/03/29 06:41:13;;;;;;;;;6.50;6.50;;;;;11.42;58.77;99895.75;5050746;28;46556;-79
2023/03/29 06:43:40;;;;;;;;;6.75;5.00;;;;;11.43;58.55;99900.09;5066071;28;45382;-79
2023/03/29 06:46:10;;;;;;;;;7.50;7.50;;;;;11.43;58.62;99901.88;5044254;28;45467;-79
2023/03/29 06:48:37;;;;;;;;;7.25;7.25;;;;;11.46;58.83;99909.72;5055687;28;45519;-79
2023/03/29 06:51:03;;;;;;;;;9.00;7.25;;;;;11.47;58.91;99900.88;5058624;28;45608;-79
2023/03/29 06:53:30;;;;;;;;;8.75;7.75;;;;;11.48;58.75;99892.91;5068335;28;46335;-79
2023/03/29 06:55:55;;;;;;;;;8.00;7.00;;;;;11.53;58.95;99904.22;5052996;28;45605;-79
2023/03/29 06:58:21;;;;;;;;;7.75;7.00;;;;;11.58;58.83;99903.16;5061391;28;45433;-79
2023/03/29 07:00:47;;;;;;;;;6.00;4.25;;;;;11.61;59.12;99898.66;5061563;28;45483;-79
2023/03/29 07:03:18;;;;;;;;;5.25;5.25;;;;;11.67;58.51;99894.97;5062183;28;45599;-79
2023/03/29 07:05:50;;;;;;;;;7.25;7.25;;;;;11.73;58.47;99884.22;5051420;28;45459;-79
2023/03/29 07:08:17;;;;;;;;;6.00;4.75;;;;;11.79;58.19;99884.03;5048336;28;45431;-79
2023/03/29 07:10:46;;;;;;;;;6.25;4.25;;;;;11.83;57.93;99897.09;5049009;28;45711;-79
2023/03/29 07:13:12;;;;;;;;;4.25;4.25;;;;;11.88;58.03;99903.13;5053581;28;45405;-79
2023/03/29 07:15:39;;;;;;;;;5.00;4.00;;;;;11.97;58.02;99898.41;5053540;28;45519;-80
2023/03/29 07:18:06;;;;;;;;;15.25;11.50;;;;;12.07;57.51;99897.19;5072458;27;45471;-80
2023/03/29 07:20:32;;;;;;;;;6.50;6.00;;;;;12.15;57.07;99901.31;5047081;28;46064;-79
2023/03/29 07:22:58;;;;;;;;;4.00;4.00;;;;;12.25;57.22;99909.78;5061150;28;45409;-79
2023/03/29 07:25:26;;;;;;;;;7.00;7.00;;;;;12.35;57.05;99908.56;5055281;28;45482;-79
2023/03/29 07:27:52;;;;;;;;;7.00;6.00;;;;;12.44;56.67;99907.38;5051242;28;45531;-79
2023/03/29 07:30:20;;;;;;;;;6.25;6.25;;;;;12.51;56.90;99907.09;5043756;28;47070;-79
2023/03/29 07:32:46;;;;;;;;;6.25;5.25;;;;;12.61;56.23;99912.91;5052466;28;45464;-79
2023/03/29 07:35:13;;;;;;;;;6.75;6.00;;;;;12.67;56.24;99911.84;5056887;27;45608;-79
2023/03/29 07:37:39;;;;;;;;;8.00;6.00;;;;;12.73;56.21;99909.00;5054196;28;45305;-79
2023/03/29 07:40:17;;;;;;;;;9.00;6.50;;;;;12.80;55.58;99916.63;5040954;28;47011;-80
2023/03/29 07:42:46;;;;;;;;;8.25;6.25;;;;;12.90;55.57;99903.94;5057566;28;45450;-79
2023/03/29 07:45:15;;;;;;;;;7.25;4.50;;;;;13.00;55.01;99912.41;5048717;28;45352;-80
2023/03/29 07:47:41;;;;;;;;;8.50;5.25;;;;;13.10;54.90;99919.06;5063073;28;45521;-79
2023/03/29 07:50:07;;;;;;;;;8.00;8.00;;;;;13.20;55.04;99920.50;5042005;28;45502;-80
2023/03/29 07:52:35;;;;;;;;;13.25;11.00;;;;;13.30;54.87;99919.22;5053272;28;45352;-79
2023/03/29 07:55:01;;;;;;;;;13.75;12.00;;;;;13.37;54.68;99915.41;5061082;28;45526;-79
2023/03/29 07:57:26;;;;;;;;;13.00;13.00;;;;;13.44;54.80;99916.88;5046814;27;45375;-79
2023/03/29 07:59:52;;;;;;;;;14.75;14.75;;;;;13.50;54.90;99927.25;5047652;28;45361;-79
2023/03/29 08:02:19;;;;;;;;;12.75;11.50;;;;;13.52;54.64;99936.00;5059421;28;45303;-78
2023/03/29 08:04:45;;;;;;;;;18.00;13.25;;;;;13.58;55.13;99934.88;5054382;28;45473;-80
2023/03/29 08:07:11;;;;;;;;;18.00;14.50;;;;;13.62;54.99;99928.53;5049038;28;45428;-79
2023/03/29 08:09:37;;;;;;;;;17.25;12.75;;;;;13.67;54.77;99925.72;5052641;28;45539;-80
2023/03/29 08:12:02;;;;;;;;;14.50;13.00;;;;;13.70;54.65;99917.66;5061623;28;45409;-80
2023/03/29 08:14:28;;;;;;;;;16.75;15.00;;;;;13.72;54.50;99919.31;5054408;28;45517;-78
2023/03/29 08:16:53;;;;;;;;;14.50;12.25;;;;;13.79;54.38;99926.09;5058181;28;45497;-78
2023/03/29 08:19:19;;;;;;;;;12.50;12.50;;;;;13.85;53.74;99922.34;5055450;28;45785;-80
2023/03/29 08:21:44;;;;;;;;;16.75;13.50;;;;;13.91;53.63;99928.22;5065444;28;45396;-79
2023/03/29 08:24:10;;;;;;;;;11.50;10.75;;;;;13.97;53.06;99928.00;5053101;28;45547;-79
2023/03/29 08:26:35;;;;;;;;;14.00;11.00;;;;;14.03;52.76;99921.59;5060221;28;45591;-79
2023/03/29 08:29:01;;;;;;;;;10.75;10.00;;;;;14.04;52.79;99912.72;5064571;28;46280;-79
2023/03/29 08:31:26;;;;;;;;;13.25;12.25;;;;;14.05;52.72;99903.81;5056327;28;45357;-79
2023/03/29 08:33:52;;;;;;;;;12.00;10.00;;;;;14.08;52.58;99924.88;5055250;28;45310;-80
2023/03/29 08:36:18;;;;;;;;;11.00;10.75;;;;;14.13;52.83;99922.06;5048429;28;45245;-79
2023/03/29 08:38:44;;;;;;;;;9.75;8.75;;;;;14.15;52.46;99912.25;5047424;28;45388;-79
2023/03/29 08:41:35;;;;;;;;;13.75;13.75;;;;;14.21;52.77;99912.88;5054977;28;45455;-79
2023/03/29 08:44:27;;;;;;;;;10.00;10.00;;;;;14.31;52.75;99905.38;5045448;28;45422;-79
2023/03/29 08:46:58;;;;;;;;;8.00;6.00;;;;;14.36;52.66;99898.09;5045782;28;45388;-79
2023/03/29 08:49:25;;;;;;;;;7.00;7.00;;;;;14.43;52.41;99906.66;5055399;28;46591;-79
2023/03/29 08:52:03;;;;;;;;;10.75;9.50;;;;;14.50;52.33;99910.78;5065403;28;45397;-79
2023/03/29 08:54:42;;;;;;;;;8.00;8.00;;;;;14.53;52.12;99908.00;5048491;28;45404;-79
2023/03/29 08:57:37;;;;;;;;;6.50;6.50;;;;;14.56;51.81;99905.22;5049216;28;45411;-79
2023/03/29 09:00:05;;;;;;;;;8.00;8.00;;;;;14.64;52.02;99903.06;5055470;28;46694;-79
2023/03/29 09:02:33;;;;;;;;;13.75;10.00;;;;;14.76;51.78;99897.22;5047481;28;45443;-79
2023/03/29 09:05:21;;;;;;;;;10.00;8.00;;;;;14.89;51.32;99895.75;5057985;27;45534;-79
2023/03/29 09:07:47;;;;;;;;;6.00;6.00;;;;;15.00;50.19;99892.59;5052521;28;45380;-79
2023/03/29 09:10:17;;;;;;;;;7.00;5.75;;;;;15.11;50.43;99890.28;5062727;27;46319;-79
2023/03/29 09:12:55;;;;;;;;;7.00;7.00;;;;;15.26;50.52;99902.00;5046047;28;45525;-79
2023/03/29 09:15:33;;;;;;;;;6.75;6.00;;;;;15.39;50.04;99897.84;5066971;28;45338;-79
2023/03/29 09:18:12;;;;;;;;;5.00;4.75;;;;;15.50;49.21;99898.19;5059511;28;45416;-79
2023/03/29 09:20:53;;;;;;;;;7.00;6.25;;;;;15.61;48.92;99898.56;5057388;28;48221;-79
2023/03/29 09:23:58;;;;;;;;;9.60;7.00;;;;;15.73;48.42;99890.94;5071325;28;45515;-79
2023/03/29 09:26:36;;;;;;;;;9.50;8.00;;;;;15.82;48.58;99894.00;5053680;28;45460;-79
2023/03/29 09:29:18;;;;;;;;;10.00;7.75;;;;;15.93;48.33;99888.16;5054869;28;45456;-79
2023/03/29 09:31:44;;;;;;;;;7.00;6.00;;;;;15.97;47.82;99879.09;5054641;28;46393;-79
2023/03/29 09:34:14;;;;;;;;;9.00;6.50;;;;;16.01;47.90;99876.22;5051597;28;45297;-79
2023/03/29 09:36:51;;;;;;;;;5.75;5.75;;;;;16.13;47.56;99876.50;5055217;28;45432;-79
2023/03/29 09:39:19;;;;;;;;;4.50;4.00;;;;;16.28;46.92;99875.72;5059603;28;45542;-79
2023/03/29 09:42:00;;;;;;;;;5.00;5.00;;;;;16.47;46.91;99867.66;5058404;28;45439;-79
2023/03/29 09:44:30;;;;;;;;;13.00;11.00;;;;;16.62;46.84;99867.72;5047836;28;45512;-79
2023/03/29 09:47:14;;;;;;;;;7.00;5.75;;;;;16.73;45.80;99859.22;5053243;28;45637;-79
2023/03/29 09:49:46;;;;;;;;;9.75;7.00;;;;;16.82;45.39;99855.16;5046303;28;45348;-79
2023/03/29 09:52:15;;;;;;;;;5.50;5.50;;;;;16.90;44.62;99845.84;5053185;28;45972;-79
2023/03/29 09:54:41;;;;;;;;;6.00;4.20;;;;;16.98;44.86;99843.59;5053164;28;45358;-79
2023/03/29 09:57:16;;;;;;;;;3.00;2.60;;;;;17.07;44.20;99839.59;5070867;28;45492;-79
2023/03/29 09:59:44;;;;;;;;;2.50;2.00;;;;;17.14;44.58;99835.63;5041988;28;45541;-79
2023/03/29 10:02:12;;;;;;;;;6.00;6.00;;;;;17.23;44.24;99832.47;5069817;28;47886;-79
2023/03/29 10:04:41;;;;;;;;;5.00;4.60;;;;;17.32;44.52;99834.59;5055083;28;45464;-79
2023/03/29 10:07:14;;;;;;;;;4.00;4.00;;;;;17.38;44.18;99833.41;5055051;28;45550;-79
2023/03/29 10:09:43;;;;;;;;;5.25;5.00;;;;;17.47;44.06;99832.00;5055158;28;45361;-79
2023/03/29 10:12:10;;;;;;;;;7.00;7.00;;;;;17.51;43.53;99842.41;5041429;28;45500;-79
2023/03/29 10:14:41;;;;;;;;;4.00;4.00;;;;;17.57;42.74;99836.75;5055055;28;45434;-79
2023/03/29 10:17:18;;;;;;;;;7.25;7.25;;;;;17.67;43.83;99839.75;5054871;28;45396;-79
2023/03/29 10:19:54;;;;;;;;;4.00;3.80;;;;;17.70;43.71;99834.25;5054900;28;45388;-80
2023/03/29 10:22:26;;;;;;;;;4.00;4.00;;;;;17.76;43.09;99829.41;5054853;28;45496;-80
2023/03/29 10:24:54;;;;;;;;;5.40;5.00;;;;;17.82;43.29;99841.53;5054912;28;45439;-80
2023/03/29 10:27:25;;;;;;;;;9.00;6.80;;;;;17.90;43.29;99841.97;5055015;28;45403;-78
2023/03/29 10:29:52;;;;;;;;;5.00;4.75;;;;;17.96;43.59;99830.91;5054761;28;45360;-81
2023/03/29 10:32:21;;;;;;;;;6.00;5.60;;;;;18.05;43.45;99827.72;5055002;28;45491;-78
2023/03/29 10:34:48;;;;;;;;;4.00;4.00;;;;;18.15;43.22;99833.34;5054993;28;45372;-80
2023/03/29 10:37:18;;;;;;;;;4.20;3.00;;;;;18.26;42.80;99833.59;5054983;28;45493;-80
2023/03/29 10:39:45;;;;;;;;;5.75;4.25;;;;;18.37;43.08;99827.59;5040787;28;45380;-79
2023/03/29 10:42:18;;;;;;;;;13.00;13.00;;;;;18.40;42.52;99814.06;5060916;28;46433;-80
2023/03/29 10:44:58;;;;;;;;;5.80;5.80;;;;;18.44;42.34;99811.09;5056415;27;45434;-81
2023/03/29 10:47:24;;;;;;;;;4.50;3.75;;;;;18.42;41.76;99807.69;5054721;28;45467;-80
2023/03/29 10:49:52;;;;;;;;;9.00;6.25;;;;;18.45;41.89;99802.13;5054596;28;45372;-78
2023/03/29 10:52:19;;;;;;;;;4.60;4.40;;;;;18.51;41.87;99794.69;5052832;28;48176;-79
2023/03/29 10:54:46;;;;;;;;;6.00;4.40;;;;;18.53;41.40;99792.78;5070004;28;45737;-79
2023/03/29 10:57:16;;;;;;;;;3.40;3.40;;;;;18.55;41.20;99791.75;5054472;28;45411;-80
2023/03/29 10:59:51;;;;;;;;;4.20;3.00;;;;;18.62;41.88;99785.09;5069642;28;45534;-78
2023/03/29 11:02:41;;;;;;;;;3.00;3.00;;;;;18.67;41.43;99782.13;5054099;28;45411;-80
2023/03/29 11:05:15;;;;;;;;;2.40;1.20;;;;;18.70;41.01;99781.94;5054390;28;45424;-79
2023/03/29 11:08:01;;;;;;;;;3.00;3.00;;;;;18.62;41.69;99773.53;5054390;28;45481;-78
2023/03/29 11:10:46;;;;;;;;;3.00;3.00;;;;;18.59;41.85;99784.44;5054067;28;45663;-79
2023/03/29 11:13:26;;;;;;;;;4.20;4.00;;;;;18.58;41.82;99791.56;5054146;28;45360;-78
2023/03/29 11:16:16;;;;;;;;;5.40;3.80;;;;;18.62;42.51;99792.25;5053875;28;45352;-78
2023/03/29 11:19:30;;;;;;;;;7.00;4.00;;;;;18.70;41.99;99779.28;5065445;28;45412;-78
2023/03/29 11:22:01;;;;;;;;;5.00;5.00;;;;;18.74;42.46;99780.81;5006554;28;45508;-78
2023/03/29 11:24:48;;;;;;;;;5.20;3.80;;;;;18.77;42.20;99769.91;5054008;28;46272;-78
2023/03/29 11:27:34;;;;;;;;;5.40;5.40;;;;;18.85;42.76;99767.63;5042195;28;45457;-79
2023/03/29 11:30:05;;;;;;;;;6.60;4.60;;;;;18.97;42.39;99765.97;5053939;28;45449;-79
2023/03/29 11:32:49;;;;;;;;;13.00;11.75;;;;;19.08;42.45;99758.13;5054497;28;45359;-79
2023/03/29 11:35:17;;;;;;;;;16.25;15.00;;;;;19.12;41.74;99762.31;5041085;28;45326;-79
2023/03/29 11:37:52;;;;;;;;;16.60;13.80;;;;;19.16;41.70;99745.13;5053895;28;45448;-79
2023/03/29 11:40:34;;;;;;;;;4.80;4.20;;;;;19.13;40.78;99748.84;5053423;28;45421;-78
2023/03/29 11:43:05;;;;;;;;;4.20;3.00;;;;;19.11;40.45;99744.53;5063132;28;45401;-79
2023/03/29 11:45:41;;;;;;;;;4.00;3.00;;;;;19.02;39.78;99751.38;5053678;28;45383;-78